createdAt,value
2018-07-08T00:01:06.314Z,12.13
2018-07-08T00:03:37.421Z,17.97
2018-07-08T00:06:08.133Z,15.43
2018-07-08T00:08:38.785Z,14.57
2018-07-08T00:11:09.892Z,18.70
2018-07-08T00:13:40.895Z,14.07
2018-07-08T00:16:11.487Z,19.90
2018-07-08T00:18:43.046Z,14.80
2018-07-08T00:21:13.684Z,15.70
2018-07-08T00:23:44.458Z,18.77
2018-07-08T00:26:15.325Z,19.97
2018-07-08T00:28:46.355Z,16.70
2018-07-08T00:31:16.961Z,20.27
2018-07-08T00:33:48.085Z,16.33
2018-07-08T00:36:19.066Z,11.97
2018-07-08T00:38:50.096Z,17.87
2018-07-08T00:41:20.753Z,20.40
2018-07-08T00:43:52.054Z,22.83
2018-07-08T00:46:22.785Z,14.67
2018-07-08T00:48:53.525Z,14.27
2018-07-08T00:51:24.574Z,15.87
2018-07-08T00:53:55.589Z,16.13
2018-07-08T00:59:03.104Z,14.93
2018-07-08T01:01:33.769Z,18.83
2018-07-08T01:04:04.770Z,15.10
2018-07-08T01:06:35.918Z,24.33
2018-07-08T01:09:08.052Z,15.87
2018-07-08T01:11:38.997Z,20.37
2018-07-08T01:14:10.220Z,22.20
2018-07-08T01:16:41.050Z,17.60
2018-07-08T01:19:11.982Z,11.83
2018-07-08T01:21:43.570Z,17.63
2018-07-08T01:24:14.634Z,20.60
2018-07-08T01:26:45.925Z,14.50
2018-07-08T01:29:16.946Z,20.37
2018-07-08T01:31:47.901Z,15.23
2018-07-08T01:34:18.805Z,15.13
2018-07-08T01:36:49.349Z,17.23
2018-07-08T01:39:20.685Z,17.90
2018-07-08T01:41:51.353Z,15.53
2018-07-08T01:44:22.010Z,20.87
2018-07-08T01:46:53.490Z,20.27
2018-07-08T01:49:24.322Z,16.03
2018-07-08T01:51:55.102Z,12.80
2018-07-08T01:54:26.358Z,14.80
2018-07-08T01:56:57.026Z,25.50
2018-07-08T01:59:28.136Z,15.67
2018-07-08T02:01:59.225Z,11.97
2018-07-08T02:04:30.305Z,13.50
2018-07-08T02:07:01.022Z,22.57
2018-07-08T02:09:32.260Z,21.07
2018-07-08T02:12:02.970Z,18.10
2018-07-08T02:14:34.373Z,15.70
2018-07-08T02:17:04.741Z,17.73
2018-07-08T02:19:36.180Z,19.10
2018-07-08T02:22:07.470Z,18.20
2018-07-08T02:24:38.790Z,17.60
2018-07-08T02:27:10.224Z,17.03
2018-07-08T02:29:41.196Z,18.33
2018-07-08T02:32:12.298Z,22.63
2018-07-08T02:34:44.423Z,19.70
2018-07-08T02:37:15.460Z,18.00
2018-07-08T02:39:46.625Z,18.10
2018-07-08T02:42:17.686Z,15.50
2018-07-08T02:44:48.723Z,22.60
2018-07-08T02:47:20.098Z,15.57
2018-07-08T02:49:51.617Z,20.90
2018-07-08T02:52:22.885Z,23.23
2018-07-08T02:54:53.805Z,19.10
2018-07-08T02:57:24.801Z,16.83
2018-07-08T02:59:55.944Z,23.33
2018-07-08T03:02:26.261Z,23.07
2018-07-08T03:04:57.403Z,16.73
2018-07-08T03:07:27.981Z,19.00
2018-07-08T03:09:58.709Z,17.90
2018-07-08T03:12:30.199Z,20.37
2018-07-08T03:15:00.902Z,19.57
2018-07-08T03:17:31.510Z,21.67
2018-07-08T03:20:02.646Z,20.00
2018-07-08T03:22:33.540Z,17.43
2018-07-08T03:25:04.122Z,16.73
2018-07-08T03:27:35.613Z,24.43
2018-07-08T03:30:06.873Z,19.83
2018-07-08T03:32:37.466Z,18.63
2018-07-08T03:35:08.994Z,20.97
2018-07-08T03:37:39.696Z,17.90
2018-07-08T03:40:10.319Z,23.60
2018-07-08T03:42:41.234Z,20.47
2018-07-08T03:45:11.991Z,19.73
2018-07-08T03:47:42.654Z,20.77
2018-07-08T03:50:14.184Z,17.63
2018-07-08T03:52:44.825Z,16.97
2018-07-08T03:55:15.446Z,23.23
2018-07-08T03:57:46.505Z,18.60
2018-07-08T04:00:17.204Z,17.40
2018-07-08T04:02:47.798Z,21.00
2018-07-08T04:05:19.226Z,17.50
2018-07-08T04:07:49.757Z,19.30
2018-07-08T04:10:20.534Z,21.00
2018-07-08T04:12:52.122Z,17.47
2018-07-08T04:15:22.940Z,21.03
2018-07-08T04:17:59.759Z,18.47
2018-07-08T04:20:30.750Z,20.00
2018-07-08T04:23:02.144Z,19.63
2018-07-08T04:25:33.690Z,17.47
2018-07-08T04:28:05.447Z,20.30
2018-07-08T04:30:36.763Z,17.60
2018-07-08T04:33:07.678Z,22.20
2018-07-08T04:35:38.814Z,16.87
2018-07-08T04:38:09.994Z,19.37
2018-07-08T04:40:41.186Z,16.90
2018-07-08T04:43:11.729Z,17.40
2018-07-08T04:45:43.103Z,16.20
2018-07-08T04:48:13.955Z,14.67
2018-07-08T04:50:44.813Z,14.80
2018-07-08T04:53:15.417Z,14.93
2018-07-08T04:55:46.158Z,16.27
2018-07-08T04:58:17.355Z,15.33
2018-07-08T05:00:48.150Z,11.90
2018-07-08T05:03:19.243Z,15.47
2018-07-08T05:05:50.758Z,19.70
2018-07-08T05:08:21.345Z,12.00
2018-07-08T05:10:52.681Z,13.40
2018-07-08T05:13:24.127Z,16.30
2018-07-08T05:15:55.902Z,11.97
2018-07-08T05:18:26.481Z,18.90
2018-07-08T05:20:57.933Z,16.13
2018-07-08T05:23:28.742Z,19.00
2018-07-08T05:25:59.502Z,11.70
2018-07-08T05:28:31.225Z,16.50
2018-07-08T05:31:02.202Z,12.73
2018-07-08T05:33:32.833Z,14.40
2018-07-08T05:36:04.029Z,15.30
2018-07-08T05:38:35.555Z,16.23
2018-07-08T05:41:06.258Z,12.00
2018-07-08T05:43:37.725Z,12.63
2018-07-08T05:46:08.460Z,10.37
2018-07-08T05:48:39.333Z,11.80
2018-07-08T05:51:10.600Z,14.60
2018-07-08T05:53:41.516Z,13.87
2018-07-08T05:56:12.037Z,9.57
2018-07-08T05:58:43.178Z,10.40
2018-07-08T06:01:14.661Z,11.37
2018-07-08T06:03:45.896Z,11.27
2018-07-08T06:06:17.042Z,12.80
2018-07-08T06:08:47.931Z,15.30
2018-07-08T06:11:19.350Z,16.10
2018-07-08T06:13:50.573Z,13.33
2018-07-08T06:16:21.495Z,13.17
2018-07-08T06:18:52.302Z,14.70
2018-07-08T06:21:23.266Z,10.93
2018-07-08T06:23:53.910Z,10.90
2018-07-08T06:26:25.836Z,9.33
2018-07-08T06:28:56.971Z,9.27
2018-07-08T06:31:27.634Z,14.10
2018-07-08T06:33:58.205Z,14.77
2018-07-08T06:36:29.396Z,11.53
2018-07-08T06:39:00.035Z,12.83
2018-07-08T06:41:30.787Z,12.17
2018-07-08T06:44:01.405Z,11.30
2018-07-08T06:46:31.989Z,9.57
2018-07-08T06:49:02.733Z,7.30
2018-07-08T06:51:33.932Z,10.80
2018-07-08T06:54:04.710Z,11.67
2018-07-08T06:56:35.445Z,12.73
2018-07-08T06:59:06.009Z,9.73
2018-07-08T07:01:38.570Z,10.80
2018-07-08T07:04:09.541Z,10.43
2018-07-08T07:06:40.381Z,10.10
2018-07-08T07:09:11.961Z,14.97
2018-07-08T07:11:43.466Z,12.10
2018-07-08T07:14:14.823Z,10.33
2018-07-08T07:16:46.023Z,13.10
2018-07-08T07:19:20.814Z,8.13
2018-07-08T07:21:51.758Z,13.27
2018-07-08T07:24:25.363Z,11.30
2018-07-08T07:26:56.287Z,9.40
2018-07-08T07:29:27.384Z,12.43
2018-07-08T07:32:00.554Z,12.50
2018-07-08T07:34:32.025Z,13.17
2018-07-08T07:37:03.233Z,14.10
2018-07-08T07:39:35.353Z,10.53
2018-07-08T07:42:06.249Z,8.57
2018-07-08T07:44:38.276Z,11.37
2018-07-08T07:47:09.571Z,8.37
2018-07-08T07:49:40.317Z,10.30
2018-07-08T07:52:11.346Z,10.77
2018-07-08T07:54:42.982Z,10.50
2018-07-08T07:57:14.062Z,12.00
2018-07-08T07:59:44.587Z,10.83
2018-07-08T08:02:15.361Z,12.00
2018-07-08T08:04:45.942Z,10.93
2018-07-08T08:07:16.165Z,8.67
2018-07-08T08:09:46.624Z,9.03
2018-07-08T08:12:16.724Z,7.57
2018-07-08T08:14:47.635Z,11.57
2018-07-08T08:17:18.185Z,13.43
2018-07-08T08:19:48.788Z,8.33
2018-07-08T08:22:19.641Z,7.93
2018-07-08T08:24:50.789Z,7.80
2018-07-08T08:27:21.520Z,12.57
2018-07-08T08:29:52.106Z,8.73
2018-07-08T08:32:23.128Z,13.70
2018-07-08T08:34:56.912Z,6.90
2018-07-08T08:37:31.126Z,11.10
2018-07-08T08:40:01.779Z,10.40
2018-07-08T08:42:33.321Z,9.60
2018-07-08T08:45:04.117Z,9.03
2018-07-08T08:47:35.446Z,9.43
2018-07-08T08:50:06.988Z,11.83
2018-07-08T08:52:37.695Z,12.17
2018-07-08T08:55:09.333Z,11.27
2018-07-08T08:57:41.456Z,7.30
2018-07-08T09:00:16.758Z,12.07
2018-07-08T09:02:47.768Z,9.80
2018-07-08T09:05:18.281Z,11.20
2018-07-08T09:07:48.706Z,6.87
2018-07-08T09:10:19.733Z,11.97
2018-07-08T09:12:50.454Z,9.97
2018-07-08T09:15:20.978Z,14.33
2018-07-08T09:17:52.403Z,10.03
2018-07-08T09:20:22.645Z,7.60
2018-07-08T09:22:53.362Z,8.23
2018-07-08T09:25:24.329Z,9.73
2018-07-08T09:27:55.181Z,8.93
2018-07-08T09:30:26.326Z,9.90
2018-07-08T09:32:57.885Z,10.00
2018-07-08T09:35:28.640Z,8.83
2018-07-08T09:37:59.524Z,11.10
2018-07-08T09:40:30.433Z,9.53
2018-07-08T09:43:01.052Z,9.97
2018-07-08T09:45:31.668Z,10.20
2018-07-08T09:48:02.884Z,9.67
2018-07-08T09:50:33.425Z,8.40
2018-07-08T09:53:03.962Z,10.23
2018-07-08T09:55:34.993Z,7.53
2018-07-08T09:58:06.370Z,10.77
2018-07-08T10:00:36.875Z,9.60
2018-07-08T10:03:07.997Z,10.00
2018-07-08T10:05:38.546Z,10.87
2018-07-08T10:08:09.750Z,8.97
2018-07-08T10:10:40.625Z,10.43
2018-07-08T10:13:11.420Z,10.90
2018-07-08T10:15:42.702Z,9.07
2018-07-08T10:18:13.777Z,8.47
2018-07-08T10:20:44.918Z,9.93
2018-07-08T10:23:16.246Z,9.27
2018-07-08T10:25:46.855Z,9.27
2018-07-08T10:28:18.821Z,11.67
2018-07-08T10:30:50.467Z,8.37
2018-07-08T10:33:21.685Z,9.83
2018-07-08T10:35:56.662Z,7.50
2018-07-08T10:38:27.856Z,12.10
2018-07-08T10:40:58.364Z,8.33
2018-07-08T10:43:29.708Z,8.43
2018-07-08T10:46:00.305Z,7.10
2018-07-08T10:48:31.609Z,10.70
2018-07-08T10:51:02.777Z,8.37
2018-07-08T10:53:33.386Z,9.83
2018-07-08T10:56:04.399Z,7.03
2018-07-08T10:58:35.136Z,8.60
2018-07-08T11:01:05.509Z,7.20
2018-07-08T11:03:36.357Z,8.70
2018-07-08T11:06:07.014Z,9.43
2018-07-08T11:08:37.581Z,8.97
2018-07-08T11:11:09.048Z,9.17
2018-07-08T11:13:39.765Z,5.47
2018-07-08T11:16:10.673Z,7.53
2018-07-08T11:18:41.269Z,7.77
2018-07-08T11:21:11.859Z,9.90
2018-07-08T11:23:42.774Z,9.00
2018-07-08T11:26:13.446Z,7.17
2018-07-08T11:28:44.430Z,8.40
2018-07-08T11:31:15.051Z,12.33
2018-07-08T11:33:45.817Z,8.73
2018-07-08T11:36:16.402Z,5.90
2018-07-08T11:38:47.338Z,7.77
2018-07-08T11:41:17.947Z,6.40
2018-07-08T11:43:49.382Z,7.80
2018-07-08T11:46:19.935Z,8.57
2018-07-08T11:48:50.487Z,10.37
2018-07-08T11:51:21.514Z,8.00
2018-07-08T11:53:52.186Z,7.27
2018-07-08T11:56:22.753Z,7.77
2018-07-08T11:58:54.201Z,8.20
2018-07-08T12:01:25.106Z,7.23
2018-07-08T12:03:55.645Z,10.33
2018-07-08T12:06:26.568Z,9.03
2018-07-08T12:08:57.230Z,9.93
2018-07-08T12:11:27.883Z,6.53
2018-07-08T12:13:58.717Z,5.70
2018-07-08T12:16:29.306Z,8.77
2018-07-08T12:19:00.638Z,8.27
2018-07-08T12:21:31.646Z,8.20
2018-07-08T12:24:02.521Z,6.70
2018-07-08T12:26:34.207Z,6.27
2018-07-08T12:29:05.258Z,8.00
2018-07-08T12:31:36.157Z,8.73
2018-07-08T12:34:07.540Z,7.67
2018-07-08T12:36:39.181Z,6.97
2018-07-08T12:39:12.976Z,9.20
2018-07-08T12:41:43.994Z,8.43
2018-07-08T12:44:15.097Z,6.83
2018-07-08T12:46:45.713Z,7.20
2018-07-08T12:49:17.045Z,8.67
2018-07-08T12:51:47.849Z,6.30
2018-07-08T12:54:18.943Z,5.70
2018-07-08T12:56:49.540Z,6.30
2018-07-08T12:59:20.112Z,7.57
2018-07-08T13:01:51.023Z,5.50
2018-07-08T13:04:21.589Z,9.07
2018-07-08T13:06:52.137Z,8.03
2018-07-08T13:09:23.057Z,5.37
2018-07-08T13:11:54.065Z,8.27
2018-07-08T13:14:25.238Z,6.87
2018-07-08T13:16:55.782Z,6.83
2018-07-08T13:19:26.314Z,8.40
2018-07-08T13:21:57.387Z,5.13
2018-07-08T13:24:28.668Z,5.13
2018-07-08T13:26:59.258Z,7.53
2018-07-08T13:29:30.637Z,7.67
2018-07-08T13:32:01.231Z,7.77
2018-07-08T13:34:32.041Z,7.77
2018-07-08T13:37:02.751Z,4.77
2018-07-08T13:39:33.642Z,5.07
2018-07-08T13:42:04.389Z,7.50
2018-07-08T13:44:35.143Z,5.67
2018-07-08T13:47:06.182Z,5.37
2018-07-08T13:49:36.878Z,6.63
2018-07-08T13:52:07.421Z,5.10
2018-07-08T13:54:37.967Z,4.33
2018-07-08T13:57:09.378Z,6.30
2018-07-08T13:59:40.418Z,7.00
2018-07-08T14:02:11.010Z,4.83
2018-07-08T14:04:42.175Z,7.30
2018-07-08T14:07:12.818Z,11.47
2018-07-08T14:09:43.565Z,5.87
2018-07-08T14:12:14.491Z,5.63
2018-07-08T14:14:45.372Z,8.40
2018-07-08T14:17:16.397Z,5.97
2018-07-08T14:19:46.987Z,8.50
2018-07-08T14:22:18.094Z,6.17
2018-07-08T14:24:49.286Z,6.60
2018-07-08T14:27:19.857Z,3.93
2018-07-08T14:29:51.094Z,6.47
2018-07-08T14:32:21.714Z,6.97
2018-07-08T14:34:52.432Z,8.37
2018-07-08T14:37:23.118Z,8.20
2018-07-08T14:39:53.730Z,5.73
2018-07-08T14:42:24.961Z,6.37
2018-07-08T14:44:55.688Z,6.00
2018-07-08T14:47:26.234Z,6.10
2018-07-08T14:49:57.473Z,6.10
2018-07-08T14:52:28.052Z,5.63
2018-07-08T14:54:58.765Z,13.30
2018-07-08T14:57:29.890Z,4.87
2018-07-08T15:00:00.686Z,7.27
2018-07-08T15:02:31.646Z,5.73
2018-07-08T15:05:02.662Z,7.40
2018-07-08T15:07:33.217Z,3.40
2018-07-08T15:10:03.810Z,7.70
2018-07-08T15:12:34.761Z,7.80
2018-07-08T15:15:05.870Z,6.47
2018-07-08T15:17:35.933Z,7.37
2018-07-08T15:20:07.495Z,6.67
2018-07-08T15:22:38.162Z,6.27
2018-07-08T15:25:09.009Z,9.90
2018-07-08T15:27:39.649Z,5.73
2018-07-08T15:30:10.470Z,5.73
2018-07-08T15:32:41.846Z,5.17
2018-07-08T15:35:12.403Z,5.07
2018-07-08T15:37:43.092Z,7.83
2018-07-08T15:40:13.997Z,4.57
2018-07-08T15:42:44.846Z,4.87
2018-07-08T15:45:15.631Z,8.43
2018-07-08T15:47:46.224Z,4.37
2018-07-08T15:50:16.949Z,5.40
2018-07-08T15:52:47.641Z,6.07
2018-07-08T15:55:19.946Z,6.53
2018-07-08T15:57:52.317Z,5.70
2018-07-08T16:00:25.377Z,5.10
2018-07-08T16:02:56.343Z,6.17
2018-07-08T16:05:27.350Z,4.73
2018-07-08T16:07:58.101Z,5.40
2018-07-08T16:10:29.274Z,6.37
2018-07-08T16:12:59.954Z,5.27
2018-07-08T16:15:31.139Z,7.63
2018-07-08T16:18:03.325Z,7.90
2018-07-08T16:20:34.774Z,6.80
2018-07-08T16:23:05.325Z,8.47
2018-07-08T16:25:36.861Z,3.60
2018-07-08T16:28:07.461Z,4.80
2018-07-08T16:30:38.433Z,6.50
2018-07-08T16:33:09.062Z,6.63
2018-07-08T16:35:44.428Z,7.23
2018-07-08T16:38:15.537Z,5.97
2018-07-08T16:40:46.326Z,3.90
2018-07-08T16:43:16.910Z,8.67
2018-07-08T16:45:48.030Z,6.40
2018-07-08T16:48:18.851Z,5.83
2018-07-08T16:50:49.738Z,6.03
2018-07-08T16:53:20.435Z,4.23
2018-07-08T16:55:51.306Z,7.50
2018-07-08T16:58:22.185Z,4.13
2018-07-08T17:00:53.321Z,4.53
2018-07-08T17:03:23.882Z,6.97
2018-07-08T17:05:55.629Z,4.20
2018-07-08T17:08:26.291Z,7.47
2018-07-08T17:10:56.850Z,5.70
2018-07-08T17:13:27.831Z,6.07
2018-07-08T17:15:58.641Z,6.07
2018-07-08T17:18:29.229Z,5.23
2018-07-08T17:21:00.677Z,6.50
2018-07-08T17:23:31.389Z,5.80
2018-07-08T17:26:01.970Z,4.93
2018-07-08T17:28:33.080Z,4.47
2018-07-08T17:31:03.781Z,6.27
2018-07-08T17:33:34.509Z,6.20
2018-07-08T17:36:05.660Z,5.20
2018-07-08T17:38:36.343Z,8.33
2018-07-08T17:41:07.393Z,5.50
2018-07-08T17:43:38.710Z,5.00
2018-07-08T17:46:09.630Z,7.90
2018-07-08T17:48:41.029Z,6.27
2018-07-08T17:51:12.193Z,5.20
2018-07-08T17:53:42.826Z,5.37
2018-07-08T17:56:14.198Z,6.50
2018-07-08T17:58:45.393Z,5.27
2018-07-08T18:01:17.161Z,6.77
2018-07-08T18:03:48.186Z,5.80
2018-07-08T18:06:19.010Z,4.30
2018-07-08T18:08:49.576Z,6.20
2018-07-08T18:11:20.806Z,6.37
2018-07-08T18:13:52.061Z,7.30
2018-07-08T18:16:23.122Z,4.03
2018-07-08T18:18:54.247Z,4.60
2018-07-08T18:21:25.115Z,3.77
2018-07-08T18:23:55.646Z,6.23
2018-07-08T18:26:26.526Z,6.33
2018-07-08T18:28:57.129Z,3.73
2018-07-08T18:31:28.250Z,5.17
2018-07-08T18:33:58.990Z,6.23
2018-07-08T18:36:29.969Z,5.63
2018-07-08T18:39:01.013Z,5.73
2018-07-08T18:41:31.822Z,5.70
2018-07-08T18:44:02.225Z,5.53
2018-07-08T18:46:33.716Z,4.53
2018-07-08T18:49:04.526Z,8.20
2018-07-08T18:51:35.473Z,5.10
2018-07-08T18:54:06.645Z,7.13
2018-07-08T18:56:36.992Z,8.43
2018-07-08T18:59:07.562Z,5.37
2018-07-08T19:01:39.142Z,6.00
2018-07-08T19:04:09.820Z,6.13
2018-07-08T19:06:40.966Z,6.47
2018-07-08T19:09:11.639Z,3.77
2018-07-08T19:11:42.602Z,4.13
2018-07-08T19:14:13.277Z,6.67
2018-07-08T19:16:43.986Z,6.57
2018-07-08T19:19:14.686Z,5.80
2018-07-08T19:21:45.721Z,6.23
2018-07-08T19:24:16.365Z,5.00
2018-07-08T19:26:47.294Z,4.80
2018-07-08T19:29:18.497Z,10.00
2018-07-08T19:31:49.745Z,9.40
2018-07-08T19:34:20.373Z,5.17
2018-07-08T19:36:51.466Z,7.33
2018-07-08T19:39:22.063Z,11.27
2018-07-08T19:41:52.799Z,10.03
2018-07-08T19:44:24.249Z,7.47
2018-07-08T19:46:55.349Z,8.93
2018-07-08T19:49:26.031Z,7.83
2018-07-08T19:51:57.037Z,7.93
2018-07-08T19:54:27.807Z,8.37
2018-07-08T19:56:59.322Z,7.27
2018-07-08T19:59:30.991Z,4.83
2018-07-08T20:02:01.946Z,8.07
2018-07-08T20:04:32.565Z,10.37
2018-07-08T20:07:03.666Z,7.70
2018-07-08T20:09:34.362Z,9.83
2018-07-08T20:12:05.313Z,10.63
2018-07-08T20:14:36.554Z,11.20
2018-07-08T20:17:58.922Z,7.07
2018-07-08T20:20:32.402Z,7.53
2018-07-08T20:23:32.015Z,7.33
2018-07-08T20:26:43.934Z,12.30
2018-07-08T20:32:16.481Z,8.23
2018-07-08T20:34:47.322Z,10.23
2018-07-08T20:37:30.866Z,8.47
2018-07-08T20:40:04.587Z,8.27
2018-07-08T20:42:48.197Z,9.43
2018-07-08T20:45:21.309Z,8.43
2018-07-08T20:47:53.809Z,8.53
2018-07-08T20:50:29.434Z,9.97
2018-07-08T20:53:04.636Z,7.13
2018-07-08T20:55:38.052Z,7.50
2018-07-08T20:58:09.330Z,11.60
2018-07-08T21:00:42.817Z,8.90
2018-07-08T21:03:17.370Z,12.10
2018-07-08T21:09:18.937Z,11.97
2018-07-08T21:12:00.872Z,6.23
2018-07-08T21:14:34.010Z,7.53
2018-07-08T21:17:04.955Z,9.47
2018-07-08T21:19:36.217Z,7.33
2018-07-08T21:22:07.166Z,9.83
2018-07-08T21:24:37.921Z,9.67
2018-07-08T21:27:09.221Z,8.93
2018-07-08T21:29:39.811Z,8.47
2018-07-08T21:32:10.570Z,10.60
2018-07-08T21:34:41.786Z,11.80
2018-07-08T21:37:12.393Z,9.13
2018-07-08T21:39:42.972Z,9.53
2018-07-08T21:42:14.386Z,11.70
2018-07-08T21:44:45.271Z,12.17
2018-07-08T21:47:16.161Z,8.70
2018-07-08T21:49:47.217Z,9.13
2018-07-08T21:52:18.143Z,9.67
2018-07-08T21:54:48.887Z,11.43
2018-07-08T21:57:20.518Z,12.50
2018-07-08T21:59:52.257Z,12.03
2018-07-08T22:02:23.470Z,9.57
2018-07-08T22:04:54.121Z,8.30
2018-07-08T22:07:30.126Z,7.67
2018-07-08T22:10:00.902Z,13.13
2018-07-08T22:12:31.764Z,11.00
2018-07-08T22:15:03.044Z,7.20
2018-07-08T22:17:34.025Z,12.30
2018-07-08T22:20:05.466Z,12.20
2018-07-08T22:22:36.333Z,12.03
2018-07-08T22:25:06.930Z,12.47
2018-07-08T22:27:39.145Z,10.07
2018-07-08T22:30:09.726Z,14.43
2018-07-08T22:32:40.797Z,11.40
2018-07-08T22:35:11.787Z,10.87
2018-07-08T22:37:42.534Z,13.83
2018-07-08T22:40:13.070Z,12.70
2018-07-08T22:42:43.985Z,13.30
2018-07-08T22:45:14.914Z,8.67
2018-07-08T22:47:45.871Z,10.83
2018-07-08T22:50:16.429Z,9.07
2018-07-08T22:52:47.466Z,12.93
2018-07-08T22:55:18.421Z,10.97
2018-07-08T22:57:50.285Z,10.27
2018-07-08T23:00:31.355Z,12.07
2018-07-08T23:04:09.521Z,9.13
2018-07-08T23:06:40.061Z,16.43
2018-07-08T23:09:10.855Z,11.53
2018-07-08T23:11:41.946Z,13.23
2018-07-08T23:14:12.768Z,15.57
2018-07-08T23:16:43.837Z,18.37
2018-07-08T23:19:15.337Z,17.20
2018-07-08T23:21:46.326Z,11.30
2018-07-08T23:24:17.038Z,11.00
2018-07-08T23:26:47.625Z,13.20
2018-07-08T23:29:19.709Z,15.37
2018-07-08T23:31:51.111Z,14.60
2018-07-08T23:34:22.406Z,14.50
2018-07-08T23:36:53.825Z,15.70
2018-07-08T23:39:24.888Z,13.00
2018-07-08T23:41:55.360Z,14.13
2018-07-08T23:44:26.156Z,13.27
2018-07-08T23:46:56.753Z,16.83
2018-07-08T23:49:27.786Z,12.73
2018-07-08T23:51:58.971Z,15.73
2018-07-08T23:54:29.610Z,12.83
2018-07-08T23:57:00.689Z,12.47
2018-07-08T23:59:31.769Z,11.97
